createdAt,value
2019-04-07T00:02:03.734Z,82.90
2019-04-07T00:04:34.114Z,82.90
2019-04-07T00:07:04.722Z,83.00
2019-04-07T00:09:35.575Z,83.70
2019-04-07T00:12:06.089Z,84.10
2019-04-07T00:14:36.521Z,84.20
2019-04-07T00:17:06.451Z,85.00
2019-04-07T00:19:37.768Z,85.60
2019-04-07T00:22:08.237Z,85.80
2019-04-07T00:24:39.283Z,86.10
2019-04-07T00:27:10.194Z,86.10
2019-04-07T00:29:40.821Z,86.20
2019-04-07T00:32:11.164Z,86.60
2019-04-07T00:34:41.564Z,87.00
2019-04-07T00:37:11.881Z,87.10
2019-04-07T00:39:42.273Z,87.60
2019-04-07T00:42:12.698Z,88.10
2019-04-07T00:44:43.297Z,88.50
2019-04-07T00:47:14.035Z,88.80
2019-04-07T00:49:45.042Z,89.40
2019-04-07T00:52:17.302Z,90.00
2019-04-07T00:54:47.926Z,90.10
2019-04-07T00:57:18.394Z,90.30
2019-04-07T00:59:48.937Z,90.60
2019-04-07T01:02:19.487Z,90.70
2019-04-07T01:04:49.924Z,90.90
2019-04-07T01:07:20.238Z,91.00
2019-04-07T01:09:50.744Z,91.00
2019-04-07T01:12:21.386Z,91.10
2019-04-07T01:14:52.157Z,91.20
2019-04-07T01:17:22.562Z,91.50
2019-04-07T01:19:53.511Z,91.60
2019-04-07T01:22:24.404Z,91.60
2019-04-07T01:24:54.827Z,91.70
2019-04-07T01:27:25.830Z,91.80
2019-04-07T01:29:56.436Z,91.80
2019-04-07T01:32:26.825Z,91.70
2019-04-07T01:34:57.134Z,91.80
2019-04-07T01:37:27.604Z,92.00
2019-04-07T01:39:58.086Z,92.10
2019-04-07T01:42:41.013Z,91.90
2019-04-07T01:45:30.235Z,92.10
2019-04-07T01:48:35.634Z,92.40
2019-04-07T01:51:14.583Z,92.50
2019-04-07T01:54:10.274Z,92.50
2019-04-07T01:56:56.481Z,92.60
2019-04-07T01:59:45.835Z,92.60
2019-04-07T02:02:33.316Z,92.70
2019-04-07T02:05:29.858Z,92.70
2019-04-07T02:08:18.206Z,92.70
2019-04-07T02:11:16.839Z,92.90
2019-04-07T02:13:54.837Z,92.90
2019-04-07T02:16:44.337Z,93.00
2019-04-07T02:19:25.091Z,93.20
2019-04-07T02:22:17.599Z,93.10
2019-04-07T02:25:05.427Z,93.20
2019-04-07T02:27:40.570Z,93.40
2019-04-07T02:30:24.344Z,93.50
2019-04-07T02:33:06.832Z,93.60
2019-04-07T02:36:14.502Z,93.60
2019-04-07T02:38:45.681Z,93.50
2019-04-07T02:41:32.649Z,93.50
2019-04-07T02:44:25.438Z,93.60
2019-04-07T02:47:15.874Z,93.60
2019-04-07T02:50:20.779Z,93.70
2019-04-07T02:52:57.241Z,93.90
2019-04-07T02:55:45.589Z,94.00
2019-04-07T02:58:27.514Z,94.20
2019-04-07T03:01:14.933Z,94.30
2019-04-07T03:04:06.069Z,94.50
2019-04-07T03:06:58.751Z,94.50
2019-04-07T03:09:37.122Z,94.50
2019-04-07T03:12:27.508Z,94.60
2019-04-07T03:15:13.550Z,94.80
2019-04-07T03:18:06.874Z,94.70
2019-04-07T03:20:55.788Z,94.70
2019-04-07T03:23:33.958Z,94.80
2019-04-07T03:26:34.036Z,94.90
2019-04-07T03:29:23.735Z,94.90
2019-04-07T03:32:12.007Z,94.70
2019-04-07T03:34:48.797Z,94.70
2019-04-07T03:37:36.403Z,94.90
2019-04-07T03:40:14.699Z,94.60
2019-04-07T03:43:09.829Z,95.20
2019-04-07T03:45:50.165Z,94.80
2019-04-07T03:48:28.801Z,94.70
2019-04-07T03:51:24.445Z,95.20
2019-04-07T03:54:21.020Z,95.20
2019-04-07T03:57:11.271Z,95.30
2019-04-07T04:00:00.546Z,95.20
2019-04-07T04:02:50.558Z,95.20
2019-04-07T04:05:47.717Z,95.20
2019-04-07T04:08:41.634Z,95.20
2019-04-07T04:11:23.746Z,95.10
2019-04-07T04:14:13.347Z,95.20
2019-04-07T04:16:47.636Z,95.10
2019-04-07T04:19:18.770Z,95.00
2019-04-07T04:21:49.295Z,95.00
2019-04-07T04:24:19.960Z,95.00
2019-04-07T04:26:51.735Z,95.10
2019-04-07T04:29:23.308Z,95.20
2019-04-07T04:31:54.603Z,95.30
2019-04-07T04:34:25.228Z,95.80
2019-04-07T04:36:56.317Z,95.40
2019-04-07T04:39:26.791Z,95.50
2019-04-07T04:41:58.204Z,95.50
2019-04-07T04:44:29.416Z,95.50
2019-04-07T04:47:01.246Z,95.40
2019-04-07T04:49:31.753Z,95.50
2019-04-07T04:52:03.014Z,95.90
2019-04-07T04:54:33.491Z,95.60
2019-04-07T04:57:07.477Z,95.70
2019-04-07T04:59:36.691Z,95.70
2019-04-07T05:02:07.807Z,95.70
2019-04-07T05:04:38.494Z,95.80
2019-04-07T05:07:08.969Z,95.70
2019-04-07T05:09:48.682Z,95.70
2019-04-07T05:12:13.172Z,95.70
2019-04-07T05:14:43.496Z,95.60
2019-04-07T05:17:13.835Z,95.70
2019-04-07T05:19:44.367Z,95.70
2019-04-07T05:22:15.251Z,95.80
2019-04-07T05:24:45.777Z,95.80
2019-04-07T05:27:16.455Z,95.90
2019-04-07T05:29:46.866Z,95.90
2019-04-07T05:32:17.298Z,95.90
2019-04-07T05:34:47.729Z,96.00
2019-04-07T05:37:18.763Z,96.10
2019-04-07T05:39:49.274Z,96.20
2019-04-07T05:42:20.067Z,96.30
2019-04-07T05:44:50.671Z,96.40
2019-04-07T05:47:21.299Z,96.50
2019-04-07T05:49:54.484Z,96.50
2019-04-07T05:52:23.964Z,96.50
2019-04-07T05:54:54.548Z,96.50
2019-04-07T05:57:25.060Z,96.60
2019-04-07T05:59:55.939Z,96.70
2019-04-07T06:02:27.128Z,96.70
2019-04-07T06:04:59.481Z,96.70
2019-04-07T06:07:31.518Z,96.90
2019-04-07T06:10:02.401Z,96.90
2019-04-07T06:12:32.917Z,96.90
2019-04-07T06:15:03.344Z,97.00
2019-04-07T06:17:33.722Z,96.90
2019-04-07T06:20:04.781Z,96.40
2019-04-07T06:22:35.084Z,96.40
2019-04-07T06:25:07.009Z,96.50
2019-04-07T06:27:38.386Z,96.50
2019-04-07T06:30:10.874Z,96.50
2019-04-07T06:32:43.618Z,96.50
2019-04-07T06:35:14.690Z,96.70
2019-04-07T06:37:45.382Z,96.80
2019-04-07T06:40:20.433Z,96.80
2019-04-07T06:42:47.774Z,96.80
2019-04-07T06:45:22.739Z,97.10
2019-04-07T06:47:56.260Z,96.80
2019-04-07T06:50:47.419Z,96.70
2019-04-07T06:53:25.862Z,96.70
2019-04-07T06:56:32.192Z,96.70
2019-04-07T06:59:21.988Z,96.70
2019-04-07T07:02:02.241Z,96.80
2019-04-07T07:04:50.680Z,97.00
2019-04-07T07:08:09.972Z,96.40
2019-04-07T07:10:58.981Z,96.40
2019-04-07T07:13:51.999Z,96.40
2019-04-07T07:16:43.770Z,96.40
2019-04-07T07:19:32.817Z,96.40
2019-04-07T07:22:16.123Z,96.30
2019-04-07T07:24:47.119Z,96.30
2019-04-07T07:27:17.587Z,95.70
2019-04-07T07:29:51.629Z,96.40
2019-04-07T07:32:20.437Z,96.10
2019-04-07T07:34:50.950Z,96.20
2019-04-07T07:37:22.978Z,96.40
2019-04-07T07:39:54.326Z,96.60
2019-04-07T07:42:24.723Z,96.80
2019-04-07T07:44:55.998Z,96.60
2019-04-07T07:47:26.537Z,96.60
2019-04-07T07:49:57.565Z,96.60
2019-04-07T07:52:29.747Z,96.50
2019-04-07T07:55:02.547Z,96.50
2019-04-07T07:57:32.683Z,96.00
2019-04-07T08:00:06.154Z,95.60
2019-04-07T08:02:35.315Z,95.30
2019-04-07T08:05:06.218Z,95.30
2019-04-07T08:07:36.862Z,95.30
2019-04-07T08:10:07.418Z,94.50
2019-04-07T08:12:38.987Z,94.30
2019-04-07T08:15:09.533Z,94.00
2019-04-07T08:17:39.934Z,93.40
2019-04-07T08:20:11.319Z,92.10
2019-04-07T08:22:43.721Z,91.90
2019-04-07T08:25:14.338Z,91.60
2019-04-07T08:27:45.240Z,91.40
2019-04-07T08:30:16.267Z,90.80
2019-04-07T08:32:46.931Z,90.70
2019-04-07T08:35:17.613Z,90.20
2019-04-07T08:37:49.008Z,90.00
2019-04-07T08:40:20.329Z,90.00
2019-04-07T08:42:52.124Z,89.40
2019-04-07T08:45:23.107Z,88.80
2019-04-07T08:47:53.727Z,88.60
2019-04-07T08:50:27.744Z,88.60
2019-04-07T08:52:57.997Z,88.60
2019-04-07T08:55:29.849Z,88.00
2019-04-07T08:58:02.503Z,88.30
2019-04-07T09:00:34.731Z,88.00
2019-04-07T09:03:11.091Z,86.80
2019-04-07T09:05:37.079Z,86.10
2019-04-07T09:08:08.049Z,87.40
2019-04-07T09:10:44.184Z,86.10
2019-04-07T09:13:14.534Z,85.50
2019-04-07T09:16:06.942Z,85.10
2019-04-07T09:19:09.192Z,84.30
2019-04-07T09:22:01.956Z,83.70
2019-04-07T09:25:03.422Z,84.50
2019-04-07T09:27:52.289Z,84.20
2019-04-07T09:30:30.862Z,84.10
2019-04-07T09:33:12.574Z,83.60
2019-04-07T09:35:59.206Z,82.90
2019-04-07T09:38:43.582Z,82.00
2019-04-07T09:41:35.257Z,82.50
2019-04-07T09:44:36.000Z,80.70
2019-04-07T09:47:31.825Z,79.30
2019-04-07T09:50:36.386Z,79.20
2019-04-07T09:53:29.586Z,78.50
2019-04-07T09:56:33.496Z,78.50
2019-04-07T09:59:36.303Z,77.50
2019-04-07T10:02:35.769Z,77.60
2019-04-07T10:05:26.698Z,77.90
2019-04-07T10:08:21.989Z,77.60
2019-04-07T10:11:26.315Z,77.10
2019-04-07T10:14:20.624Z,76.20
2019-04-07T10:17:11.808Z,75.40
2019-04-07T10:20:09.294Z,75.70
2019-04-07T10:22:54.142Z,74.50
2019-04-07T10:25:43.522Z,75.80
2019-04-07T10:28:28.721Z,74.50
2019-04-07T10:31:21.340Z,73.40
2019-04-07T10:33:58.430Z,73.00
2019-04-07T10:36:42.555Z,73.00
2019-04-07T10:39:26.603Z,73.40
2019-04-07T10:42:09.750Z,72.90
2019-04-07T10:45:19.199Z,73.10
2019-04-07T10:48:08.013Z,73.00
2019-04-07T10:51:00.718Z,72.30
2019-04-07T10:57:20.496Z,72.00
2019-04-07T11:00:15.999Z,71.20
2019-04-07T11:03:13.530Z,69.60
2019-04-07T11:06:06.062Z,70.00
2019-04-07T11:09:03.642Z,69.80
2019-04-07T11:12:08.846Z,69.80
2019-04-07T11:14:49.127Z,69.30
2019-04-07T11:17:45.243Z,69.40
2019-04-07T11:20:30.080Z,68.70
2019-04-07T11:23:18.474Z,68.00
2019-04-07T11:26:11.279Z,70.00
2019-04-07T11:28:49.039Z,68.70
2019-04-07T11:31:40.517Z,67.20
2019-04-07T11:34:37.462Z,67.40
2019-04-07T11:37:29.121Z,66.70
2019-04-07T11:40:25.115Z,66.60
2019-04-07T11:43:08.782Z,66.80
2019-04-07T11:46:06.140Z,66.20
2019-04-07T11:49:04.156Z,66.20
2019-04-07T11:52:03.766Z,65.20
2019-04-07T11:54:46.511Z,64.70
2019-04-07T11:57:35.786Z,63.80
2019-04-07T12:00:30.051Z,64.60
2019-04-07T12:03:24.789Z,65.00
2019-04-07T12:06:14.435Z,64.90
2019-04-07T12:09:08.588Z,63.30
2019-04-07T12:11:58.215Z,62.70
2019-04-07T12:14:52.173Z,63.30
2019-04-07T12:17:42.077Z,63.40
2019-04-07T12:20:28.243Z,62.60
2019-04-07T12:23:20.989Z,61.60
2019-04-07T12:25:56.874Z,62.40
2019-04-07T12:28:47.356Z,61.00
2019-04-07T12:31:39.143Z,61.20
2019-04-07T12:34:27.536Z,61.30
2019-04-07T12:37:23.819Z,60.80
2019-04-07T12:40:04.452Z,59.80
2019-04-07T12:43:35.929Z,59.70
2019-04-07T12:46:33.217Z,59.50
2019-04-07T12:49:20.867Z,58.50
2019-04-07T12:52:16.329Z,58.50
2019-04-07T12:55:17.819Z,58.80
2019-04-07T12:58:11.386Z,58.70
2019-04-07T13:01:00.024Z,58.80
2019-04-07T13:03:59.005Z,58.20
2019-04-07T13:06:52.374Z,58.40
2019-04-07T13:09:33.698Z,58.70
2019-04-07T13:12:29.650Z,58.50
2019-04-07T13:15:18.366Z,58.50
2019-04-07T13:18:11.997Z,58.60
2019-04-07T13:20:56.146Z,58.50
2019-04-07T13:23:49.234Z,58.40
2019-04-07T13:26:33.536Z,59.20
2019-04-07T13:29:25.511Z,59.70
2019-04-07T13:32:12.119Z,58.70
2019-04-07T13:35:04.558Z,58.30
2019-04-07T13:37:59.032Z,58.20
2019-04-07T13:40:42.662Z,56.80
2019-04-07T13:43:18.921Z,56.50
2019-04-07T13:46:22.055Z,56.10
2019-04-07T13:49:17.948Z,56.70
2019-04-07T13:52:20.839Z,56.80
2019-04-07T13:55:17.355Z,57.10
2019-04-07T13:58:00.727Z,57.10
2019-04-07T14:00:48.253Z,56.60
2019-04-07T14:03:40.746Z,56.80
2019-04-07T14:06:46.743Z,57.10
2019-04-07T14:09:35.420Z,56.90
2019-04-07T14:12:19.248Z,57.20
2019-04-07T14:15:11.635Z,57.70
2019-04-07T14:18:11.235Z,57.50
2019-04-07T14:20:55.252Z,56.50
2019-04-07T14:23:35.476Z,57.10
2019-04-07T14:26:14.718Z,57.20
2019-04-07T14:28:58.814Z,57.00
2019-04-07T14:31:51.633Z,57.00
2019-04-07T14:34:39.117Z,56.70
2019-04-07T14:37:28.915Z,56.30
2019-04-07T14:40:27.999Z,56.10
2019-04-07T14:43:19.086Z,56.30
2019-04-07T14:45:58.072Z,56.00
2019-04-07T14:48:49.077Z,56.60
2019-04-07T14:51:29.661Z,55.60
2019-04-07T14:54:20.441Z,55.70
2019-04-07T14:57:02.162Z,55.20
2019-04-07T15:00:09.411Z,56.00
2019-04-07T15:02:40.042Z,55.20
2019-04-07T15:05:28.805Z,54.40
2019-04-07T15:08:10.595Z,53.80
2019-04-07T15:10:47.376Z,54.20
2019-04-07T15:13:23.855Z,53.20
2019-04-07T15:15:52.656Z,53.00
2019-04-07T15:18:25.042Z,53.10
2019-04-07T15:20:54.924Z,53.70
2019-04-07T15:23:25.236Z,55.00
2019-04-07T15:25:55.657Z,54.90
2019-04-07T15:28:29.761Z,54.90
2019-04-07T15:30:58.811Z,55.00
2019-04-07T15:33:32.082Z,55.30
2019-04-07T15:36:10.790Z,55.60
2019-04-07T15:38:42.134Z,55.50
2019-04-07T15:41:16.661Z,55.50
2019-04-07T15:43:45.331Z,56.30
2019-04-07T15:46:18.052Z,56.40
2019-04-07T15:48:48.398Z,56.20
2019-04-07T15:51:19.634Z,56.10
2019-04-07T15:53:51.952Z,56.20
2019-04-07T15:56:22.053Z,56.10
2019-04-07T15:58:52.930Z,56.20
2019-04-07T16:01:23.809Z,55.30
2019-04-07T16:03:54.855Z,55.20
2019-04-07T16:06:25.956Z,55.10
2019-04-07T16:08:59.608Z,55.10
2019-04-07T16:11:30.292Z,55.20
2019-04-07T16:14:00.299Z,55.20
2019-04-07T16:16:31.778Z,55.30
2019-04-07T16:19:02.652Z,54.80
2019-04-07T16:21:33.220Z,55.00
2019-04-07T16:24:03.759Z,55.00
2019-04-07T16:26:36.971Z,54.50
2019-04-07T16:29:07.990Z,54.30
2019-04-07T16:31:39.070Z,54.30
2019-04-07T16:34:10.441Z,54.50
2019-04-07T16:36:41.477Z,54.70
2019-04-07T16:39:11.887Z,54.80
2019-04-07T16:41:44.387Z,54.90
2019-04-07T16:44:14.176Z,54.50
2019-04-07T16:46:47.048Z,54.90
2019-04-07T16:49:18.989Z,54.00
2019-04-07T16:51:49.896Z,53.80
2019-04-07T16:54:20.717Z,53.70
2019-04-07T16:56:55.806Z,54.00
2019-04-07T16:59:23.452Z,54.60
2019-04-07T17:01:53.930Z,54.40
2019-04-07T17:04:34.973Z,54.30
2019-04-07T17:07:12.035Z,54.20
2019-04-07T17:09:37.779Z,54.20
2019-04-07T17:12:10.934Z,54.40
2019-04-07T17:14:40.891Z,54.70
2019-04-07T17:17:16.435Z,54.70
2019-04-07T17:19:43.664Z,54.90
2019-04-07T17:22:16.037Z,54.50
2019-04-07T17:24:46.130Z,54.90
2019-04-07T17:27:17.222Z,55.00
2019-04-07T17:29:53.197Z,55.30
2019-04-07T17:32:20.721Z,55.30
2019-04-07T17:34:51.869Z,55.70
2019-04-07T17:37:25.881Z,56.10
2019-04-07T17:40:19.273Z,56.40
2019-04-07T17:42:52.799Z,56.20
2019-04-07T17:45:45.182Z,56.60
2019-04-07T17:48:40.106Z,56.80
2019-04-07T17:51:30.709Z,57.10
2019-04-07T17:54:24.886Z,57.30
2019-04-07T17:57:26.727Z,57.40
2019-04-07T18:00:18.479Z,57.70
2019-04-07T18:03:04.418Z,57.90
2019-04-07T18:05:51.874Z,58.00
2019-04-07T18:09:07.864Z,58.00
2019-04-07T18:11:42.994Z,58.10
2019-04-07T18:14:44.300Z,58.20
2019-04-07T18:17:28.821Z,58.50
2019-04-07T18:20:18.189Z,58.70
2019-04-07T18:23:02.239Z,58.70
2019-04-07T18:26:06.908Z,58.90
2019-04-07T18:28:45.345Z,59.20
2019-04-07T18:31:30.105Z,59.30
2019-04-07T18:34:27.466Z,59.20
2019-04-07T18:37:14.804Z,59.60
2019-04-07T18:40:14.401Z,59.70
2019-04-07T18:43:01.017Z,60.00
2019-04-07T18:45:55.903Z,60.00
2019-04-07T18:48:46.651Z,60.30
2019-04-07T18:51:47.162Z,60.60
2019-04-07T18:54:35.485Z,60.70
2019-04-07T18:57:25.079Z,60.90
2019-04-07T19:00:24.553Z,61.10
2019-04-07T19:03:23.732Z,61.40
2019-04-07T19:06:13.170Z,61.50
2019-04-07T19:09:01.991Z,61.60
2019-04-07T19:12:02.818Z,61.70
2019-04-07T19:14:49.973Z,62.10
2019-04-07T19:17:35.993Z,62.30
2019-04-07T19:20:24.902Z,62.50
2019-04-07T19:23:04.453Z,62.60
2019-04-07T19:25:47.746Z,63.10
2019-04-07T19:28:38.199Z,63.10
2019-04-07T19:31:36.827Z,63.10
2019-04-07T19:34:43.043Z,63.50
2019-04-07T19:37:33.069Z,63.80
2019-04-07T19:40:12.417Z,64.20
2019-04-07T19:43:11.390Z,64.40
2019-04-07T19:46:12.676Z,64.80
2019-04-07T19:48:54.517Z,65.00
2019-04-07T19:51:48.298Z,65.40
2019-04-07T19:54:42.037Z,65.60
2019-04-07T19:57:36.480Z,65.70
2019-04-07T20:00:41.565Z,65.90
2019-04-07T20:03:24.999Z,66.00
2019-04-07T20:06:09.222Z,66.40
2019-04-07T20:09:19.304Z,66.40
2019-04-07T20:12:01.491Z,66.60
2019-04-07T20:14:52.705Z,66.80
2019-04-07T20:17:35.910Z,66.90
2019-04-07T20:20:43.656Z,67.10
2019-04-07T20:23:43.776Z,67.20
2019-04-07T20:26:37.418Z,67.50
2019-04-07T20:29:31.085Z,67.60
2019-04-07T20:32:26.489Z,67.60
2019-04-07T20:35:16.885Z,67.80
2019-04-07T20:38:06.285Z,67.80
2019-04-07T20:41:04.113Z,68.00
2019-04-07T20:44:01.139Z,68.20
2019-04-07T20:47:04.559Z,68.30
2019-04-07T20:49:48.245Z,68.30
2019-04-07T20:52:46.019Z,68.50
2019-04-07T20:55:24.240Z,68.50
2019-04-07T20:58:24.332Z,68.30
2019-04-07T21:01:17.735Z,68.50
2019-04-07T21:04:13.276Z,68.50
2019-04-07T21:07:00.787Z,68.70
2019-04-07T21:09:46.782Z,68.80
2019-04-07T21:12:48.322Z,68.70
2019-04-07T21:15:50.240Z,69.20
2019-04-07T21:18:40.499Z,69.10
2019-04-07T21:21:23.604Z,69.20
2019-04-07T21:24:18.886Z,69.30
2019-04-07T21:27:10.112Z,69.50
2019-04-07T21:30:06.876Z,69.50
2019-04-07T21:33:02.545Z,69.70
2019-04-07T21:35:53.557Z,69.90
2019-04-07T21:38:56.548Z,70.00
2019-04-07T21:41:46.375Z,70.20
2019-04-07T21:44:40.049Z,70.40
2019-04-07T21:47:29.487Z,70.50
2019-04-07T21:50:15.313Z,70.70
2019-04-07T21:53:05.347Z,70.70
2019-04-07T21:55:53.284Z,70.80
2019-04-07T21:58:38.631Z,71.00
2019-04-07T22:01:30.706Z,71.10
2019-04-07T22:04:22.131Z,71.30
2019-04-07T22:07:19.864Z,71.40
2019-04-07T22:09:59.115Z,71.60
2019-04-07T22:12:30.707Z,71.80
2019-04-07T22:15:02.329Z,72.10
2019-04-07T22:17:36.556Z,72.10
2019-04-07T22:20:08.360Z,72.20
2019-04-07T22:22:40.778Z,72.40
2019-04-07T22:25:12.619Z,72.50
2019-04-07T22:27:46.450Z,72.40
2019-04-07T22:30:18.598Z,72.40
2019-04-07T22:32:52.744Z,72.60
2019-04-07T22:35:26.607Z,72.90
2019-04-07T22:37:56.987Z,72.90
2019-04-07T22:40:34.861Z,73.00
2019-04-07T22:43:01.789Z,73.10
2019-04-07T22:45:32.475Z,73.20
2019-04-07T22:48:09.973Z,73.20
2019-04-07T22:50:47.538Z,73.20
2019-04-07T22:53:23.674Z,73.40
2019-04-07T22:55:50.762Z,74.20
2019-04-07T22:58:22.150Z,73.60
2019-04-07T23:00:58.942Z,73.70
2019-04-07T23:03:31.345Z,75.00
2019-04-07T23:06:06.591Z,74.10
2019-04-07T23:08:43.298Z,74.30
2019-04-07T23:11:16.106Z,74.40
2019-04-07T23:13:48.049Z,74.50
2019-04-07T23:16:20.358Z,74.60
2019-04-07T23:18:50.766Z,74.80
2019-04-07T23:21:22.230Z,75.00
2019-04-07T23:23:53.506Z,75.10
2019-04-07T23:26:24.297Z,75.40
2019-04-07T23:28:54.706Z,75.60
2019-04-07T23:31:25.135Z,76.00
2019-04-07T23:33:58.637Z,76.00
2019-04-07T23:36:30.487Z,76.20
2019-04-07T23:39:05.673Z,76.60
2019-04-07T23:41:36.109Z,76.50
2019-04-07T23:44:07.262Z,76.80
2019-04-07T23:46:37.790Z,77.00
2019-04-07T23:49:09.901Z,77.20
2019-04-07T23:51:41.354Z,77.50
2019-04-07T23:54:16.312Z,77.60
2019-04-07T23:56:47.561Z,77.80
2019-04-07T23:59:18.684Z,77.90
